Rencontre East, Canada
Current Conditions -  °F | °C
As of 11:00 AM on Tuesday 27 Jan 2015 (Local Time) from LFVP Reporting Station
Overcast Overcast  
Wind Chill:   Ceiling: 1600
Heat Index: 25°   Visibility: 6mi
Dew Point: 19°   Wind: 29mph
Humidity: 80%   Direction: 70°ENE
Pressure: 30.3"   Gusts: NA
Location:  47.65°N, 55.23°W
Report Text: LFVP 271400Z 07025KT 9999 BKN016 OVC066 M04/M07 Q1026 NOSIG
Loading
Personal Weather Stations






























Interactive Weather Map New forecast layout! Learn more

10-Day Weather Forecast

Advertisements
Track Severe Weather on mobile